Time;durP1;ratioP1;P1;durP2;ratioP2;P2;SDS_P1;SDS_P2;PMS_P1;PMS_P2;Temp;Humidity;BMP_temperature;BMP_pressure;BME280_temperature;BME280_humidity;BME280_pressure;Samples;Min_cycle;Max_cycle;Signal;HPM_P1;HPM_P2
2021/09/28 00:01:49;;;;;;;1.98;0.73;;;;;;;16.88;78.82;101128.69;5013672;28;20415;-76
2021/09/28 00:04:15;;;;;;;1.40;0.60;;;;;;;16.85;78.59;101121.03;4978273;28;20413;-76
2021/09/28 00:06:40;;;;;;;2.35;1.00;;;;;;;16.84;78.76;101119.38;5010639;28;20412;-76
2021/09/28 00:09:05;;;;;;;2.77;0.87;;;;;;;16.76;79.02;101132.78;4994664;28;20405;-76
2021/09/28 00:11:31;;;;;;;1.63;0.77;;;;;;;16.73;79.06;101128.63;5013203;28;20416;-76
2021/09/28 00:13:58;;;;;;;1.50;0.90;;;;;;;16.59;79.29;101144.75;5011671;28;20911;-77
2021/09/28 00:16:24;;;;;;;2.85;0.95;;;;;;;16.52;79.57;101135.13;4992817;28;21390;-76
2021/09/28 00:18:49;;;;;;;1.35;0.65;;;;;;;16.56;79.49;101122.59;5008879;28;20467;-76
2021/09/28 00:21:14;;;;;;;2.10;0.80;;;;;;;16.60;78.98;101124.50;5012923;28;20765;-76
2021/09/28 00:23:40;;;;;;;2.00;0.83;;;;;;;16.62;79.15;101120.69;5016929;28;20407;-76
2021/09/28 00:26:05;;;;;;;1.23;0.60;;;;;;;16.50;79.12;101129.91;5014161;28;20404;-76
2021/09/28 00:28:30;;;;;;;2.33;1.00;;;;;;;16.42;79.38;101135.06;4992545;28;20776;-76
2021/09/28 00:30:56;;;;;;;2.45;0.90;;;;;;;16.38;79.71;101131.22;5005267;28;20432;-76
2021/09/28 00:33:21;;;;;;;2.70;1.10;;;;;;;16.33;79.93;101134.78;5009236;28;20405;-76
2021/09/28 00:35:47;;;;;;;0.80;0.77;;;;;;;16.24;80.06;101141.81;5013293;28;20401;-76
2021/09/28 00:38:12;;;;;;;3.33;0.80;;;;;;;16.17;80.33;101141.22;5010174;28;20942;-76
2021/09/28 00:40:38;;;;;;;1.27;0.90;;;;;;;16.07;80.58;101133.78;4993725;28;20440;-76
2021/09/28 00:43:03;;;;;;;1.10;1.00;;;;;;;16.07;80.40;101136.53;4994342;28;20413;-76
2021/09/28 00:45:28;;;;;;;3.08;1.10;;;;;;;16.05;80.48;101141.44;4996243;28;20412;-76
2021/09/28 00:47:53;;;;;;;2.00;0.97;;;;;;;16.00;80.71;101141.41;5011613;28;20503;-76
2021/09/28 00:50:19;;;;;;;1.37;0.80;;;;;;;15.93;80.88;101140.00;5014179;28;20423;-76
2021/09/28 00:52:46;;;;;;;3.67;1.33;;;;;;;15.88;81.09;101139.97;5009790;28;20412;-76
2021/09/28 00:55:15;;;;;;;3.10;1.35;;;;;;;15.90;81.01;101146.84;5011265;28;20416;-75
2021/09/28 00:57:41;;;;;;;4.80;1.20;;;;;;;15.92;80.76;101146.56;5009060;28;20419;-77
2021/09/28 01:00:09;;;;;;;1.55;1.13;;;;;;;15.93;80.70;101159.13;5011788;28;20416;-76
2021/09/28 01:02:34;;;;;;;5.95;1.20;;;;;;;15.95;80.37;101155.06;4999339;28;21092;-76
2021/09/28 01:05:03;;;;;;;3.00;1.05;;;;;;;15.89;80.73;101158.84;5010720;28;20515;-76
2021/09/28 01:07:29;;;;;;;4.82;1.55;;;;;;;15.85;80.35;101146.78;5007261;28;20413;-76
2021/09/28 01:09:55;;;;;;;7.68;1.80;;;;;;;15.75;80.60;101152.16;5004500;28;20416;-76
2021/09/28 01:12:20;;;;;;;3.33;1.13;;;;;;;15.78;80.65;101153.56;5006842;28;20537;-76
2021/09/28 01:14:45;;;;;;;2.20;1.07;;;;;;;15.78;80.30;101151.66;5020685;28;20405;-76
2021/09/28 01:17:13;;;;;;;6.20;1.53;;;;;;;15.72;80.24;101163.63;5011605;28;20401;-76
2021/09/28 01:19:38;;;;;;;4.22;0.98;;;;;;;15.68;80.70;101159.75;5007175;28;20405;-76
2021/09/28 01:22:05;;;;;;;3.15;0.95;;;;;;;15.72;80.27;101160.06;5012159;28;20423;-75
2021/09/28 01:24:31;;;;;;;2.67;1.00;;;;;;;15.77;80.27;101158.22;5007318;28;20432;-76
2021/09/28 01:26:56;;;;;;;5.50;1.00;;;;;;;15.82;80.10;101165.63;4995627;28;20420;-76
2021/09/28 01:29:21;;;;;;;2.57;1.03;;;;;;;15.79;79.68;101160.69;5010220;28;20471;-77
2021/09/28 01:31:47;;;;;;;6.60;1.30;;;;;;;15.61;80.35;101169.28;5013111;28;20424;-77
2021/09/28 01:34:13;;;;;;;4.20;1.13;;;;;;;15.57;80.00;101167.09;4993072;28;20512;-77
2021/09/28 01:36:38;;;;;;;4.63;1.30;;;;;;;15.50;80.40;101158.28;5011788;28;20416;-76
2021/09/28 01:39:04;;;;;;;3.63;1.03;;;;;;;15.38;80.71;101157.56;4987045;28;20420;-76
2021/09/28 01:41:29;;;;;;;7.47;1.35;;;;;;;15.35;80.68;101162.72;5010344;28;20497;-75
2021/09/28 01:44:05;;;;;;;3.92;1.10;;;;;;;15.43;80.82;101162.25;5011255;28;20448;-76
2021/09/28 01:46:31;;;;;;;4.47;1.52;;;;;;;15.44;80.42;101167.44;5009789;28;20397;-76
2021/09/28 01:48:57;;;;;;;3.10;1.27;;;;;;;15.41;80.44;101167.97;5008974;28;20409;-76
2021/09/28 01:51:22;;;;;;;3.83;1.58;;;;;;;15.33;80.27;101162.16;5009312;28;20483;-76
2021/09/28 01:53:47;;;;;;;3.60;1.33;;;;;;;15.35;80.48;101169.00;5006767;28;20401;-76
2021/09/28 01:56:20;;;;;;;3.00;1.30;;;;;;;15.35;80.21;101179.94;5009398;28;20412;-76
2021/09/28 01:58:46;;;;;;;5.43;1.90;;;;;;;15.30;80.06;101182.63;4989674;28;20954;-75
2021/09/28 02:01:11;;;;;;;2.13;1.50;;;;;;;15.31;80.00;101173.34;5009986;28;20444;-76
2021/09/28 02:03:37;;;;;;;6.23;1.77;;;;;;;15.27;80.13;101190.53;5008801;28;20408;-76
2021/09/28 02:06:02;;;;;;;37.33;25.58;;;;;;;15.17;80.09;101184.94;5010294;28;20448;-76
2021/09/28 02:08:27;;;;;;;9.27;4.00;;;;;;;15.07;80.11;101185.66;5005874;28;20409;-76
2021/09/28 02:10:53;;;;;;;110.13;65.32;;;;;;;15.13;80.04;101186.53;5011905;28;20495;-76
2021/09/28 02:13:18;;;;;;;33.50;20.40;;;;;;;15.16;79.78;101184.13;4990771;28;20421;-76
2021/09/28 02:15:43;;;;;;;50.23;29.53;;;;;;;15.14;79.66;101183.56;5011507;28;20939;-76
2021/09/28 02:18:09;;;;;;;28.80;15.27;;;;;;;15.17;79.57;101182.22;5007682;28;20409;-76
2021/09/28 02:20:34;;;;;;;12.27;7.43;;;;;;;15.25;79.55;101184.47;5007501;28;20412;-76
2021/09/28 02:22:59;;;;;;;5.80;2.38;;;;;;;15.19;78.95;101174.59;5010156;28;20405;-76
2021/09/28 02:25:25;;;;;;;4.30;2.13;;;;;;;15.10;79.03;101179.69;5010676;28;20436;-76
2021/09/28 02:27:50;;;;;;;3.58;2.35;;;;;;;15.08;79.23;101177.22;5010286;28;20415;-75
2021/09/28 02:30:16;;;;;;;10.47;3.83;;;;;;;15.09;79.16;101172.56;5010473;28;20487;-75
2021/09/28 02:32:41;;;;;;;5.40;2.10;;;;;;;15.07;78.87;101182.94;5010052;28;20417;-77
2021/09/28 02:35:08;;;;;;;4.13;2.40;;;;;;;15.01;78.93;101178.53;5005781;28;20419;-76
2021/09/28 02:37:33;;;;;;;6.85;2.65;;;;;;;15.07;79.35;101174.75;5008348;28;20969;-75
2021/09/28 02:39:58;;;;;;;5.73;2.43;;;;;;;15.13;79.07;101186.53;5010945;28;20412;-75
2021/09/28 02:42:24;;;;;;;6.50;2.47;;;;;;;15.19;78.51;101177.31;4990812;28;20408;-75
2021/09/28 02:44:51;;;;;;;6.13;2.00;;;;;;;15.22;77.95;101174.91;5011018;28;20400;-75
2021/09/28 02:47:17;;;;;;;5.70;2.60;;;;;;;15.23;77.90;101175.72;4989157;28;20417;-76
2021/09/28 02:49:42;;;;;;;7.10;2.53;;;;;;;15.24;77.95;101189.13;5010955;28;20412;-76
2021/09/28 02:52:07;;;;;;;5.78;2.75;;;;;;;15.24;77.81;101180.94;4989197;28;20771;-75
2021/09/28 02:54:33;;;;;;;4.97;2.33;;;;;;;15.24;77.72;101182.84;5009962;28;20443;-76
2021/09/28 02:56:58;;;;;;;8.43;2.70;;;;;;;15.20;77.55;101182.53;5010804;28;20443;-75
2021/09/28 02:59:23;;;;;;;3.30;2.37;;;;;;;15.19;77.75;101189.06;4991914;28;20943;-75
2021/09/28 03:01:49;;;;;;;3.60;2.00;;;;;;;15.18;77.91;101183.88;5006602;28;20412;-75
2021/09/28 03:04:14;;;;;;;7.03;2.80;;;;;;;15.16;77.54;101183.28;4987297;28;20457;-76
2021/09/28 03:06:40;;;;;;;6.72;2.30;;;;;;;15.14;77.56;101189.03;5009545;28;20483;-75
2021/09/28 03:09:05;;;;;;;5.63;2.13;;;;;;;15.13;78.06;101194.72;5008007;28;20412;-76
2021/09/28 03:11:31;;;;;;;7.68;2.20;;;;;;;15.13;78.28;101192.84;5010155;28;20432;-75
2021/09/28 03:13:56;;;;;;;6.33;2.57;;;;;;;15.12;78.28;101187.63;5007179;28;20439;-75
2021/09/28 03:16:22;;;;;;;6.45;2.60;;;;;;;15.09;78.37;101186.22;5009371;28;20756;-75
2021/09/28 03:18:48;;;;;;;3.80;2.35;;;;;;;15.12;77.62;101188.44;5008817;28;20444;-76
2021/09/28 03:21:13;;;;;;;4.88;2.55;;;;;;;15.12;77.98;101191.16;5008708;28;20495;-75
2021/09/28 03:23:39;;;;;;;5.37;2.23;;;;;;;15.13;77.96;101197.47;4991655;28;20413;-75
2021/09/28 03:26:04;;;;;;;5.47;2.25;;;;;;;15.10;77.53;101192.53;4993616;28;20763;-75
2021/09/28 03:28:31;;;;;;;7.87;2.57;;;;;;;15.07;77.28;101197.41;5007768;28;20421;-75
2021/09/28 03:30:57;;;;;;;6.90;2.90;;;;;;;15.05;77.52;101201.47;5010687;28;20463;-75
2021/09/28 03:33:22;;;;;;;6.40;2.77;;;;;;;15.00;77.46;101196.78;5008219;28;20440;-75
2021/09/28 03:35:47;;;;;;;8.97;3.13;;;;;;;14.98;77.68;101201.66;5004946;28;20900;-76
2021/09/28 03:38:12;;;;;;;6.13;3.23;;;;;;;14.96;77.64;101197.56;5008950;28;20416;-75
2021/09/28 03:40:39;;;;;;;6.60;2.97;;;;;;;14.94;77.79;101191.53;5011232;28;20401;-75
2021/09/28 03:43:06;;;;;;;5.40;2.67;;;;;;;14.90;78.26;101195.84;4986013;28;20420;-75
2021/09/28 03:45:32;;;;;;;4.43;3.03;;;;;;;14.89;78.40;101189.56;4990933;28;20811;-75
2021/09/28 03:47:57;;;;;;;6.30;2.75;;;;;;;14.89;78.72;101203.22;5007859;28;20488;-75
2021/09/28 03:50:24;;;;;;;5.10;3.13;;;;;;;14.90;78.55;101196.69;5007777;28;20420;-75
2021/09/28 03:52:49;;;;;;;3.83;2.45;;;;;;;14.89;78.24;101195.03;4994050;28;20423;-76
2021/09/28 03:55:19;;;;;;;6.40;2.87;;;;;;;14.87;78.30;101191.72;5008966;28;20416;-75
2021/09/28 03:57:45;;;;;;;7.28;3.13;;;;;;;14.88;78.21;101203.47;5011463;28;20488;-76
2021/09/28 04:00:10;;;;;;;7.78;3.22;;;;;;;14.87;77.92;101193.63;5008091;28;20804;-77
2021/09/28 04:02:36;;;;;;;7.97;2.78;;;;;;;14.84;77.91;101202.34;5005770;28;20471;-77
2021/09/28 04:05:01;;;;;;;7.70;3.33;;;;;;;14.81;77.87;101200.94;5002950;28;20503;-75
2021/09/28 04:07:27;;;;;;;8.32;3.33;;;;;;;14.77;77.87;101202.53;5006118;28;20780;-75
2021/09/28 04:09:53;;;;;;;7.95;3.03;;;;;;;14.73;77.79;101206.00;5010225;28;20439;-76
2021/09/28 04:12:19;;;;;;;9.10;3.30;;;;;;;14.68;77.77;101209.50;5005738;28;20420;-74
2021/09/28 04:14:46;;;;;;;9.32;4.30;;;;;;;14.66;77.89;101205.38;5010159;28;20401;-78
2021/09/28 04:17:11;;;;;;;10.38;4.25;;;;;;;14.65;78.25;101204.56;5008954;28;20780;-75
2021/09/28 04:19:36;;;;;;;6.90;4.93;;;;;;;14.64;78.56;101207.53;5008787;28;20426;-77
2021/09/28 04:22:02;;;;;;;11.23;4.77;;;;;;;14.61;78.42;101211.59;5006991;28;20409;-75
2021/09/28 04:24:28;;;;;;;9.43;4.23;;;;;;;14.53;78.82;101203.84;5007117;28;21164;-78
2021/09/28 04:26:54;;;;;;;10.07;4.25;;;;;;;14.53;78.56;101214.75;5010562;28;20427;-78
2021/09/28 04:29:19;;;;;;;5.77;3.23;;;;;;;14.53;78.74;101212.84;5008476;28;20880;-78
2021/09/28 04:31:44;;;;;;;9.23;3.55;;;;;;;14.54;78.96;101211.78;4999875;28;20810;-75
2021/09/28 04:34:10;;;;;;;9.67;2.90;;;;;;;14.55;79.06;101207.16;5003434;28;20440;-77
2021/09/28 04:36:35;;;;;;;6.63;3.30;;;;;;;14.55;78.53;101207.97;5000267;28;20435;-77
2021/09/28 04:39:00;;;;;;;11.27;3.43;;;;;;;14.59;78.34;101207.47;5004106;28;20413;-78
2021/09/28 04:41:26;;;;;;;8.63;3.47;;;;;;;14.58;78.11;101203.94;5000878;28;20812;-77
2021/09/28 04:43:51;;;;;;;7.07;2.93;;;;;;;14.60;77.74;101209.13;5008597;28;20896;-77
2021/09/28 04:46:16;;;;;;;7.13;3.30;;;;;;;14.57;78.04;101210.44;5013516;28;20894;-78
2021/09/28 04:48:44;;;;;;;7.80;3.22;;;;;;;14.56;78.46;101211.53;5010425;28;20453;-77
2021/09/28 04:51:09;;;;;;;5.97;3.53;;;;;;;14.54;78.36;101208.22;5012923;28;20428;-77
2021/09/28 04:53:34;;;;;;;6.22;3.90;;;;;;;14.55;78.34;101216.16;5007863;28;20493;-78
2021/09/28 04:56:00;;;;;;;8.23;3.70;;;;;;;14.51;78.61;101215.03;5013029;28;20803;-75
2021/09/28 04:58:26;;;;;;;10.23;4.75;;;;;;;14.50;78.31;101212.53;5010352;28;20531;-78
2021/09/28 05:00:52;;;;;;;7.90;3.50;;;;;;;14.48;78.10;101217.44;5013112;28;20892;-78
2021/09/28 05:03:17;;;;;;;12.05;4.18;;;;;;;14.44;78.42;101210.81;5012675;28;20419;-78
2021/09/28 05:05:43;;;;;;;6.50;3.80;;;;;;;14.39;78.24;101216.22;5005770;28;20473;-78
2021/09/28 05:08:08;;;;;;;6.83;3.70;;;;;;;14.36;78.23;101212.06;5010205;28;20415;-77
2021/09/28 05:10:34;;;;;;;8.63;3.63;;;;;;;14.30;77.75;101220.41;5012901;28;20420;-76
2021/09/28 05:12:59;;;;;;;11.07;4.10;;;;;;;14.29;78.07;101224.22;5005894;28;20468;-78
2021/09/28 05:15:25;;;;;;;11.20;4.47;;;;;;;14.29;78.09;101219.56;5007472;28;20410;-75
2021/09/28 05:17:50;;;;;;;7.73;3.60;;;;;;;14.29;77.98;101216.84;4996687;28;20459;-74
2021/09/28 05:20:16;;;;;;;7.67;4.30;;;;;;;14.29;77.97;101222.28;5011766;28;20474;-76
2021/09/28 05:22:42;;;;;;;10.52;4.25;;;;;;;14.31;78.55;101220.16;5019152;28;20400;-76
2021/09/28 05:25:07;;;;;;;9.80;4.70;;;;;;;14.30;78.86;101225.84;5018252;28;20475;-78
2021/09/28 05:27:33;;;;;;;13.15;5.00;;;;;;;14.30;78.26;101223.13;5010206;28;20409;-76
2021/09/28 05:29:58;;;;;;;12.27;4.80;;;;;;;14.27;78.47;101221.72;5010454;28;20491;-76
2021/09/28 05:32:23;;;;;;;10.88;4.05;;;;;;;14.25;77.92;101225.78;5008362;28;20467;-76
2021/09/28 05:34:49;;;;;;;11.63;4.63;;;;;;;14.29;78.21;101221.50;5012053;28;20420;-76
2021/09/28 05:37:14;;;;;;;12.20;5.20;;;;;;;14.33;78.23;101218.03;5002599;28;20903;-76
2021/09/28 05:39:39;;;;;;;8.70;6.63;;;;;;;14.38;78.64;101220.00;5018894;28;20391;-76
2021/09/28 05:42:05;;;;;;;8.13;4.80;;;;;;;14.40;78.40;101226.03;5001666;28;20416;-75
2021/09/28 05:44:30;;;;;;;12.30;5.20;;;;;;;14.39;78.71;101222.47;5011798;28;20431;-76
2021/09/28 05:46:55;;;;;;;9.40;5.13;;;;;;;14.42;78.56;101213.00;5012305;28;20416;-75
2021/09/28 05:49:21;;;;;;;9.53;4.13;;;;;;;14.48;78.88;101217.44;5018080;28;20408;-77
2021/09/28 05:51:54;;;;;;;10.17;4.50;;;;;;;14.54;78.49;101216.41;5012375;28;20973;-76
2021/09/28 05:54:20;;;;;;;8.40;4.53;;;;;;;14.59;78.29;101221.13;5015001;28;20966;-76
2021/09/28 05:56:47;;;;;;;5.25;3.85;;;;;;;14.60;77.56;101214.56;4995555;28;20405;-75
2021/09/28 05:59:13;;;;;;;9.05;5.10;;;;;;;14.48;78.20;101220.97;5011070;28;20804;-75
2021/09/28 06:01:38;;;;;;;10.13;4.80;;;;;;;14.41;78.40;101220.34;5019761;28;20407;-75
2021/09/28 06:04:03;;;;;;;9.70;4.57;;;;;;;14.45;78.38;101220.66;5012245;28;20405;-75
2021/09/28 06:06:30;;;;;;;13.27;4.97;;;;;;;14.51;78.39;101215.03;5012123;28;20405;-75
2021/09/28 06:08:56;;;;;;;9.43;5.05;;;;;;;14.60;78.58;101220.03;5009503;28;20422;-76
2021/09/28 06:11:22;;;;;;;10.25;5.20;;;;;;;14.71;78.58;101225.38;5011081;28;20425;-75
2021/09/28 06:13:47;;;;;;;9.10;4.90;;;;;;;14.85;78.18;101223.09;5016329;28;20426;-75
2021/09/28 06:16:13;;;;;;;9.70;5.68;;;;;;;14.86;77.39;101219.25;5016550;28;20765;-76
2021/09/28 06:18:38;;;;;;;10.43;5.33;;;;;;;14.84;77.30;101218.69;4993530;28;20459;-76
2021/09/28 06:21:03;;;;;;;8.40;5.23;;;;;;;14.82;77.74;101221.69;4998059;28;20801;-76
2021/09/28 06:23:29;;;;;;;9.90;5.33;;;;;;;14.78;77.98;101219.72;5011835;28;20405;-75
2021/09/28 06:25:54;;;;;;;7.95;5.03;;;;;;;14.72;78.57;101218.81;5019827;28;20400;-76
2021/09/28 06:28:19;;;;;;;11.03;5.70;;;;;;;14.74;78.46;101215.84;5011525;28;20420;-75
2021/09/28 06:30:45;;;;;;;10.63;5.00;;;;;;;14.68;78.13;101222.31;5019455;28;20428;-75
2021/09/28 06:33:11;;;;;;;8.50;5.15;;;;;;;14.66;78.35;101221.72;5011042;28;20503;-75
2021/09/28 06:35:36;;;;;;;8.83;5.07;;;;;;;14.63;78.36;101216.78;5019000;28;20492;-75
2021/09/28 06:38:06;;;;;;;8.90;5.40;;;;;;;14.58;78.82;101224.91;5007053;28;20492;-75
2021/09/28 06:40:31;;;;;;;8.50;4.85;;;;;;;14.52;78.71;101227.56;4990378;28;20489;-76
2021/09/28 06:42:56;;;;;;;8.40;5.10;;;;;;;14.53;78.92;101220.22;5016364;28;20949;-76
2021/09/28 06:45:23;;;;;;;8.47;5.10;;;;;;;14.51;78.98;101228.66;4996954;28;20866;-76
2021/09/28 06:47:48;;;;;;;8.47;5.50;;;;;;;14.50;79.14;101223.44;5013182;28;20410;-75
2021/09/28 06:50:14;;;;;;;12.10;5.40;;;;;;;14.55;79.04;101223.53;5015908;28;20409;-76
2021/09/28 06:52:41;;;;;;;10.40;5.57;;;;;;;14.65;79.11;101220.09;5012303;28;20758;-76
2021/09/28 06:55:08;;;;;;;10.32;5.10;;;;;;;14.71;79.03;101222.66;5009027;28;20413;-75
2021/09/28 06:57:33;;;;;;;11.38;5.35;;;;;;;14.65;78.78;101223.66;5010164;28;20455;-76
2021/09/28 06:59:58;;;;;;;9.10;4.57;;;;;;;14.71;79.18;101216.34;5009253;28;20401;-76
2021/09/28 07:02:24;;;;;;;9.67;5.13;;;;;;;14.84;78.58;101224.16;5011027;28;20504;-76
2021/09/28 07:04:49;;;;;;;9.23;5.20;;;;;;;14.90;78.77;101218.50;5011446;28;20405;-76
2021/09/28 07:07:14;;;;;;;6.50;4.40;;;;;;;14.94;78.37;101225.13;5010729;28;20904;-75
2021/09/28 07:09:39;;;;;;;7.03;5.00;;;;;;;14.87;78.44;101213.56;4992440;28;20493;-76
2021/09/28 07:12:05;;;;;;;10.90;5.67;;;;;;;14.92;78.72;101223.69;5009167;28;20419;-75
2021/09/28 07:14:30;;;;;;;8.07;4.90;;;;;;;15.00;77.90;101220.53;4994003;28;20423;-76
2021/09/28 07:16:56;;;;;;;9.03;4.77;;;;;;;15.05;77.58;101224.13;5014897;28;20419;-76
2021/09/28 07:19:21;;;;;;;11.60;4.45;;;;;;;15.03;78.41;101228.22;5008884;28;20451;-76
2021/09/28 07:21:46;;;;;;;7.47;4.70;;;;;;;15.01;78.82;101225.75;5006285;28;20447;-76
2021/09/28 07:24:12;;;;;;;8.00;4.63;;;;;;;14.96;78.79;101222.94;5007042;28;20417;-75
2021/09/28 07:26:37;;;;;;;9.20;4.77;;;;;;;14.96;78.99;101222.13;5009247;28;20884;-76
2021/09/28 07:29:02;;;;;;;12.40;4.90;;;;;;;14.97;78.61;101223.78;5018994;28;20902;-75
2021/09/28 07:31:28;;;;;;;9.37;4.43;;;;;;;15.01;78.59;101220.28;5021495;28;20432;-75
2021/09/28 07:33:53;;;;;;;9.23;5.27;;;;;;;15.01;78.45;101227.66;5008466;28;20419;-76
2021/09/28 07:36:19;;;;;;;9.35;4.55;;;;;;;15.02;78.97;101216.47;5010027;28;20484;-75
2021/09/28 07:38:45;;;;;;;9.33;5.00;;;;;;;15.12;78.77;101217.66;5000230;28;20849;-76
2021/09/28 07:41:11;;;;;;;10.90;5.07;;;;;;;15.13;79.07;101222.88;4989305;28;20789;-76
2021/09/28 07:43:36;;;;;;;10.55;4.53;;;;;;;15.09;78.96;101221.72;5002982;28;20431;-75
2021/09/28 07:46:02;;;;;;;10.80;4.80;;;;;;;15.10;78.59;101219.81;5008162;28;20887;-77
2021/09/28 07:48:27;;;;;;;11.48;5.78;;;;;;;15.10;78.66;101217.91;5013046;28;20413;-76
2021/09/28 07:50:53;;;;;;;9.87;5.13;;;;;;;15.13;78.45;101213.84;5009248;28;20427;-76
2021/09/28 07:53:18;;;;;;;13.23;5.97;;;;;;;15.20;78.14;101219.94;5009166;28;21066;-76
2021/09/28 07:55:44;;;;;;;13.83;6.23;;;;;;;15.26;77.81;101224.34;5011586;28;20418;-76
2021/09/28 07:58:09;;;;;;;12.13;6.43;;;;;;;15.25;77.05;101231.72;5006468;28;20506;-76
2021/09/28 08:00:34;;;;;;;10.30;5.33;;;;;;;15.23;76.41;101228.44;4995077;28;20532;-75
2021/09/28 08:03:01;;;;;;;8.88;5.20;;;;;;;15.28;76.86;101231.22;4995053;28;20403;-76
2021/09/28 08:05:26;;;;;;;9.48;5.50;;;;;;;15.37;76.51;101231.59;4990723;28;20484;-75
2021/09/28 08:07:51;;;;;;;12.30;5.67;;;;;;;15.37;76.30;101228.84;5013466;28;20527;-76
2021/09/28 08:10:17;;;;;;;11.23;4.93;;;;;;;15.38;75.88;101231.31;5003670;28;20416;-75
2021/09/28 08:12:42;;;;;;;8.90;4.97;;;;;;;15.29;76.36;101227.41;5012023;28;20883;-76
2021/09/28 08:15:08;;;;;;;9.57;4.87;;;;;;;15.09;77.20;101224.44;5003848;28;20395;-76
2021/09/28 08:17:34;;;;;;;11.93;4.20;;;;;;;15.15;77.79;101225.34;5012093;28;20788;-76
2021/09/28 08:19:59;;;;;;;11.05;4.68;;;;;;;15.20;77.27;101220.75;5014255;28;20442;-75
2021/09/28 08:22:25;;;;;;;12.27;5.57;;;;;;;15.27;77.45;101223.28;4998103;28;20401;-76
2021/09/28 08:24:54;;;;;;;7.80;4.75;;;;;;;15.28;76.59;101217.56;5012051;28;20408;-76
2021/09/28 08:30:23;;;;;;;6.55;4.28;;;;;;;15.50;76.25;101223.00;4935520;29;20950;-76
2021/09/28 08:32:49;;;;;;;8.85;3.80;;;;;;;15.67;76.14;101217.44;4934687;29;20518;-76
2021/09/28 08:35:15;;;;;;;11.47;4.07;;;;;;;15.75;74.61;101209.56;4971478;28;20491;-77
2021/09/28 08:37:41;;;;;;;7.05;3.40;;;;;;;15.84;73.81;101218.13;5013596;28;20400;-76
2021/09/28 08:40:06;;;;;;;7.03;3.30;;;;;;;15.98;73.02;101217.41;5017040;28;20417;-76
2021/09/28 08:42:32;;;;;;;8.93;2.65;;;;;;;16.07;71.50;101218.56;4996600;28;20891;-76
2021/09/28 08:44:57;;;;;;;8.50;2.30;;;;;;;16.12;70.88;101222.41;5013852;28;20404;-76
2021/09/28 08:47:39;;;;;;;6.97;2.63;;;;;;;16.13;70.95;101222.16;5011064;28;20466;-75
2021/09/28 08:50:10;;;;;;;4.90;2.35;;;;;;;16.18;70.32;101224.91;4996396;28;20417;-75
2021/09/28 08:52:41;;;;;;;5.80;2.33;;;;;;;16.33;69.06;101235.97;5018032;28;20407;-76
2021/09/28 08:55:06;;;;;;;5.65;2.00;;;;;;;16.46;68.36;101231.94;5012315;28;20460;-76
2021/09/28 08:57:32;;;;;;;5.70;2.10;;;;;;;16.56;68.22;101224.63;5017524;28;20859;-76
2021/09/28 08:59:59;;;;;;;3.83;2.13;;;;;;;16.57;68.63;101226.28;5013137;28;20496;-76
2021/09/28 09:02:40;;;;;;;4.43;2.95;;;;;;;16.52;69.26;101228.16;5013233;28;20412;-76
2021/09/28 09:05:06;;;;;;;9.80;3.08;;;;;;;16.49;68.30;101226.78;5013376;28;20397;-75
2021/09/28 09:07:32;;;;;;;5.95;2.47;;;;;;;16.53;68.51;101225.13;5024762;28;20982;-76
2021/09/28 09:09:57;;;;;;;4.63;1.93;;;;;;;16.64;67.51;101215.09;5019743;28;20411;-76
2021/09/28 09:12:34;;;;;;;6.97;2.47;;;;;;;16.71;67.38;101215.69;5013576;28;20443;-75
2021/09/28 09:15:20;;;;;;;8.70;2.58;;;;;;;16.90;68.25;101213.28;5007886;28;20428;-76
2021/09/28 09:17:48;;;;;;;7.47;2.53;;;;;;;17.08;67.05;101216.38;5012369;28;20394;-76
2021/09/28 09:20:37;;;;;;;6.03;2.25;;;;;;;17.22;66.41;101213.13;5016629;28;20404;-76
2021/09/28 09:23:21;;;;;;;5.17;2.70;;;;;;;17.38;65.60;101206.56;5007417;28;20397;-76
2021/09/28 09:25:47;;;;;;;6.68;1.67;;;;;;;17.50;64.96;101204.38;4990392;28;20420;-76
2021/09/28 09:28:22;;;;;;;5.70;2.13;;;;;;;17.43;64.83;101201.91;5012528;28;20397;-75
2021/09/28 09:30:48;;;;;;;5.85;1.73;;;;;;;17.37;64.90;101185.75;5006608;28;20417;-76
2021/09/28 09:33:22;;;;;;;5.65;1.50;;;;;;;17.39;63.44;101198.06;5018563;28;20403;-76
2021/09/28 09:35:56;;;;;;;4.53;1.65;;;;;;;17.78;63.66;101192.09;5011791;28;20402;-76
2021/09/28 09:38:21;;;;;;;6.17;1.73;;;;;;;18.20;61.61;101195.34;5009882;28;20420;-76
2021/09/28 09:40:48;;;;;;;6.07;1.57;;;;;;;18.29;61.55;101185.44;5012401;28;20397;-76
2021/09/28 09:43:27;;;;;;;5.93;1.80;;;;;;;18.40;60.23;101183.50;5015708;28;20879;-76
2021/09/28 09:46:06;;;;;;;6.10;1.40;;;;;;;18.38;59.94;101178.28;5017200;28;20484;-76
2021/09/28 09:48:33;;;;;;;10.15;2.17;;;;;;;18.55;59.42;101176.06;5009608;28;20409;-76
2021/09/28 09:51:03;;;;;;;5.75;1.23;;;;;;;18.47;58.89;101175.78;5012301;28;20420;-76
2021/09/28 09:53:28;;;;;;;3.30;1.20;;;;;;;18.38;58.92;101164.53;5014128;28;20413;-76
2021/09/28 09:55:54;;;;;;;6.43;1.70;;;;;;;18.32;58.99;101162.94;5016396;28;20404;-77
2021/09/28 09:58:20;;;;;;;3.87;1.40;;;;;;;18.56;58.39;101168.66;5011549;28;20400;-77
2021/09/28 10:00:48;;;;;;;2.38;1.10;;;;;;;18.82;57.95;101156.44;5012441;28;20400;-77
2021/09/28 10:03:14;;;;;;;4.07;1.30;;;;;;;18.78;58.95;101155.34;4996550;28;20423;-77
2021/09/28 10:05:39;;;;;;;4.67;1.40;;;;;;;19.53;57.39;101155.97;4994369;28;20400;-77
2021/09/28 10:08:08;;;;;;;2.92;1.40;;;;;;;20.38;54.56;101156.28;4989977;28;20416;-77
2021/09/28 10:10:34;;;;;;;5.20;1.10;;;;;;;21.19;52.11;101145.84;5010636;28;20409;-77
2021/09/28 10:13:00;;;;;;;5.13;1.67;;;;;;;21.79;50.53;101134.13;4994772;28;20784;-77
2021/09/28 10:15:25;;;;;;;4.45;1.23;;;;;;;22.36;48.89;101128.06;5011834;28;20404;-77
2021/09/28 10:17:51;;;;;;;4.33;1.20;;;;;;;22.55;47.62;101131.56;5015838;28;20803;-77
2021/09/28 10:20:22;;;;;;;4.77;1.57;;;;;;;22.92;47.97;101137.97;5007464;28;20455;-77
2021/09/28 10:22:52;;;;;;;5.90;1.30;;;;;;;23.58;45.22;101126.16;5019712;28;20396;-77
2021/09/28 10:27:47;;;;;;;3.45;1.02;;;;;;;24.67;41.89;101119.81;5011831;28;20480;-77
2021/09/28 10:30:31;;;;;;;4.43;1.10;;;;;;;25.07;41.35;101126.09;5010193;28;20743;-78
2021/09/28 10:32:57;;;;;;;3.08;1.00;;;;;;;25.37;40.67;101132.59;5004124;28;20405;-77
2021/09/28 10:35:24;;;;;;;2.08;0.75;;;;;;;25.59;39.67;101119.38;5012091;28;20405;-77
2021/09/28 10:38:02;;;;;;;2.72;0.73;;;;;;;25.72;37.56;101120.34;5011091;28;20405;-78
2021/09/28 10:40:31;;;;;;;4.43;1.08;;;;;;;26.16;37.47;101116.28;4986130;28;20419;-77
2021/09/28 10:43:23;;;;;;;2.00;0.90;;;;;;;26.12;37.06;101124.47;5004188;28;20432;-77
2021/09/28 10:45:49;;;;;;;3.63;1.40;;;;;;;26.23;37.12;101111.06;5009315;28;20488;-77
2021/09/28 10:48:35;;;;;;;1.95;1.00;;;;;;;26.10;37.17;101100.94;5011446;28;20493;-77
2021/09/28 10:51:20;;;;;;;2.05;0.82;;;;;;;26.09;35.86;101100.13;5006780;28;20934;-77
2021/09/28 10:53:47;;;;;;;4.18;1.17;;;;;;;26.24;36.51;101102.41;5011522;28;20408;-77
2021/09/28 10:56:16;;;;;;;2.38;0.85;;;;;;;25.96;35.54;101097.56;5010665;28;20938;-78
2021/09/28 10:59:03;;;;;;;3.38;1.02;;;;;;;25.66;35.20;101102.22;5007343;28;20507;-78
2021/09/28 11:01:30;;;;;;;5.68;1.25;;;;;;;25.64;36.79;101090.66;5005820;28;20479;-77
2021/09/28 11:03:58;;;;;;;2.60;1.17;;;;;;;25.55;37.80;101090.69;4995394;28;20404;-78
2021/09/28 11:06:45;;;;;;;3.92;1.10;;;;;;;25.12;38.73;101087.94;5010149;28;20484;-77
2021/09/28 11:09:13;;;;;;;4.90;1.20;;;;;;;25.15;39.20;101084.50;4987402;28;20417;-77
2021/09/28 11:11:39;;;;;;;3.88;1.30;;;;;;;25.61;38.02;101078.25;4992932;28;20465;-77
2021/09/28 11:14:07;;;;;;;2.47;1.03;;;;;;;26.30;36.56;101073.25;5009506;28;20420;-77
2021/09/28 11:16:40;;;;;;;3.92;1.25;;;;;;;26.01;35.48;101080.72;5010248;28;20409;-76
2021/09/28 11:19:05;;;;;;;3.33;1.15;;;;;;;25.71;36.39;101080.69;5010117;28;20416;-76
2021/09/28 11:21:34;;;;;;;6.30;1.40;;;;;;;26.05;35.71;101076.16;5010912;28;20401;-77
2021/09/28 11:24:00;;;;;;;3.17;1.30;;;;;;;25.96;36.58;101070.63;5009843;28;20453;-77
2021/09/28 11:26:39;;;;;;;1.30;1.10;;;;;;;25.10;37.80;101069.97;5006821;28;20446;-77
2021/09/28 11:29:06;;;;;;;4.35;1.70;;;;;;;24.57;39.35;101067.47;5010404;28;20449;-77